createdAt,value
2022-07-31T00:00:02.843Z,76.4
2022-07-31T00:03:03.047Z,76.7
2022-07-31T00:06:03.469Z,76.7
2022-07-31T00:09:02.825Z,76.7
2022-07-31T00:12:02.762Z,76.7
2022-07-31T00:15:02.792Z,76.7
2022-07-31T00:18:02.753Z,76.7
2022-07-31T00:21:02.792Z,76.7
2022-07-31T00:24:02.801Z,76.7
2022-07-31T00:27:04.562Z,76.7
2022-07-31T00:30:02.790Z,76.7
2022-07-31T00:33:02.935Z,76.7
2022-07-31T00:36:02.772Z,76.7
2022-07-31T00:39:02.902Z,76.7
2022-07-31T00:42:02.784Z,76.7
2022-07-31T00:45:02.867Z,76.9
2022-07-31T00:48:02.952Z,76.9
2022-07-31T00:51:03.005Z,76.9
2022-07-31T00:54:02.847Z,76.9
2022-07-31T00:57:03.945Z,76.9
2022-07-31T01:00:02.838Z,77.2
2022-07-31T01:03:02.832Z,77.2
2022-07-31T01:06:02.992Z,77.2
2022-07-31T01:09:02.866Z,77.2
2022-07-31T01:12:03.727Z,77.2
2022-07-31T01:15:02.730Z,77.2
2022-07-31T01:18:02.769Z,79.8
2022-07-31T01:21:02.755Z,79.8
2022-07-31T01:24:02.898Z,79.8
2022-07-31T01:27:03.998Z,79.8
2022-07-31T01:30:02.813Z,79.8
2022-07-31T01:33:02.834Z,79.8
2022-07-31T01:36:02.781Z,80.5
2022-07-31T01:39:02.826Z,80.5
2022-07-31T01:42:03.964Z,80.5
2022-07-31T01:45:02.808Z,80.5
2022-07-31T01:48:02.808Z,80.5
2022-07-31T01:51:02.739Z,80.5
2022-07-31T01:54:02.812Z,80.5
2022-07-31T01:57:02.814Z,80.5
2022-07-31T02:00:02.813Z,80.5
2022-07-31T02:03:12.566Z,80.5
2022-07-31T02:06:05.518Z,80.5
2022-07-31T02:09:02.796Z,80.5
2022-07-31T02:12:03.496Z,80.5
2022-07-31T02:15:02.836Z,80.5
2022-07-31T02:18:02.873Z,80.5
2022-07-31T02:21:02.740Z,80.5
2022-07-31T02:24:02.764Z,82
2022-07-31T02:27:02.746Z,82
2022-07-31T02:30:02.798Z,82
2022-07-31T02:33:02.838Z,82.5
2022-07-31T02:36:02.810Z,82.5
2022-07-31T02:39:02.846Z,82.5
2022-07-31T02:42:03.828Z,82.5
2022-07-31T02:45:02.757Z,82.5
2022-07-31T02:48:02.732Z,82.5
2022-07-31T02:51:02.782Z,82.5
2022-07-31T02:54:02.753Z,82.5
2022-07-31T02:57:02.774Z,82.5
2022-07-31T03:00:02.775Z,82.5
2022-07-31T03:03:02.756Z,82.5
2022-07-31T03:06:02.778Z,79.3
2022-07-31T03:09:02.742Z,79.3
2022-07-31T03:12:07.218Z,79.3
2022-07-31T03:15:02.815Z,79.3
2022-07-31T03:18:08.444Z,79.3
2022-07-31T03:21:02.741Z,79.3
2022-07-31T03:24:05.207Z,79
2022-07-31T03:27:02.745Z,79
2022-07-31T03:30:02.992Z,79
2022-07-31T03:33:02.747Z,79
2022-07-31T03:36:02.796Z,79
2022-07-31T03:39:02.896Z,79
2022-07-31T03:42:03.436Z,79
2022-07-31T03:45:02.819Z,79
2022-07-31T03:48:02.791Z,79
2022-07-31T03:51:02.877Z,79
2022-07-31T03:54:02.869Z,79
2022-07-31T03:57:02.798Z,79
2022-07-31T04:00:03.422Z,79
2022-07-31T04:03:02.794Z,79
2022-07-31T04:06:02.833Z,79
2022-07-31T04:09:19.044Z,79
2022-07-31T04:12:03.671Z,79
2022-07-31T04:15:02.834Z,79
2022-07-31T04:18:02.827Z,79
2022-07-31T04:21:02.804Z,79.9
2022-07-31T04:24:02.833Z,79.9
2022-07-31T04:27:02.856Z,79.9
2022-07-31T04:30:05.110Z,79.9
2022-07-31T04:33:02.785Z,79.9
2022-07-31T04:36:02.886Z,79.9
2022-07-31T04:39:02.851Z,79.9
2022-07-31T04:42:04.513Z,79.9
2022-07-31T04:45:02.815Z,79.9
2022-07-31T04:48:02.775Z,79.9
2022-07-31T04:51:02.772Z,79.9
2022-07-31T04:54:02.828Z,79.9
2022-07-31T04:57:02.804Z,79.9
2022-07-31T05:00:03.834Z,79.9
2022-07-31T05:03:02.783Z,79.9
2022-07-31T05:06:02.839Z,79.9
2022-07-31T05:09:13.704Z,79.9
2022-07-31T05:12:03.466Z,80.5
2022-07-31T05:15:02.884Z,80.5
2022-07-31T05:18:02.808Z,80.5
2022-07-31T05:21:02.832Z,80.5
2022-07-31T05:24:03.449Z,80.5
2022-07-31T05:27:02.941Z,80.5
2022-07-31T05:30:03.025Z,80.5
2022-07-31T05:33:02.796Z,80.5
2022-07-31T05:36:02.827Z,80.5
2022-07-31T05:39:02.959Z,80.5
2022-07-31T05:42:03.294Z,80.5
2022-07-31T05:45:02.793Z,80.5
2022-07-31T05:48:02.827Z,81.5
2022-07-31T05:51:07.952Z,81.5
2022-07-31T05:54:02.841Z,81.5
2022-07-31T05:57:02.747Z,81.5
2022-07-31T06:00:05.983Z,81.5
2022-07-31T06:03:02.867Z,79.2
2022-07-31T06:06:02.820Z,79.2
2022-07-31T06:09:07.228Z,78.7
2022-07-31T06:12:03.558Z,78.7
2022-07-31T06:15:02.869Z,78.7
2022-07-31T06:18:02.802Z,78.7
2022-07-31T06:21:02.812Z,78.7
2022-07-31T06:24:04.493Z,78.7
2022-07-31T06:27:03.185Z,78.7
2022-07-31T06:30:02.837Z,78.7
2022-07-31T06:33:15.861Z,78.7
2022-07-31T06:36:02.789Z,78.7
2022-07-31T06:39:02.786Z,78.7
2022-07-31T06:42:03.852Z,78.7
2022-07-31T06:45:02.880Z,78.7
2022-07-31T06:48:02.813Z,78.7
2022-07-31T06:51:34.270Z,76.6
2022-07-31T06:54:02.827Z,76.6
2022-07-31T06:57:02.757Z,76.6
2022-07-31T07:00:22.947Z,75.9
2022-07-31T07:03:02.784Z,75.9
2022-07-31T07:06:02.826Z,75.9
2022-07-31T07:09:02.819Z,75.9
2022-07-31T07:12:02.809Z,75.9
2022-07-31T07:15:02.789Z,75.7
2022-07-31T07:18:02.825Z,75.7
2022-07-31T07:21:02.750Z,75.7
2022-07-31T07:24:02.805Z,75.7
2022-07-31T07:27:02.752Z,75.7
2022-07-31T07:30:02.833Z,75.7
2022-07-31T07:33:02.796Z,73.6
2022-07-31T07:36:02.791Z,73.6
2022-07-31T07:39:02.779Z,73.6
2022-07-31T07:42:03.462Z,73.6
2022-07-31T07:45:06.516Z,73.6
2022-07-31T07:48:09.747Z,73.6
2022-07-31T07:51:02.809Z,73.6
2022-07-31T07:54:02.810Z,73.6
2022-07-31T07:57:02.834Z,73.6
2022-07-31T08:00:02.876Z,70.3
2022-07-31T08:03:54.223Z,70.3
2022-07-31T08:06:02.805Z,70.3
2022-07-31T08:09:02.784Z,70.3
2022-07-31T08:12:03.382Z,70.3
2022-07-31T08:15:02.816Z,70.3
2022-07-31T08:18:03.000Z,70.3
2022-07-31T08:21:02.776Z,68.4
2022-07-31T08:24:02.816Z,68.4
2022-07-31T08:27:03.339Z,68.4
2022-07-31T08:30:02.865Z,68.4
2022-07-31T08:33:03.383Z,68.4
2022-07-31T08:36:02.840Z,68.4
2022-07-31T08:39:02.797Z,68.4
2022-07-31T08:42:03.354Z,65.7
2022-07-31T08:45:02.760Z,65.7
2022-07-31T08:48:02.797Z,65.7
2022-07-31T08:51:02.788Z,65.7
2022-07-31T08:54:02.800Z,64.5
2022-07-31T08:57:03.213Z,64.5
2022-07-31T09:00:02.854Z,63
2022-07-31T09:03:02.797Z,63
2022-07-31T09:06:02.807Z,63
2022-07-31T09:09:02.777Z,63
2022-07-31T09:12:02.783Z,63
2022-07-31T09:15:02.969Z,60.7
2022-07-31T09:18:02.820Z,60.7
2022-07-31T09:21:04.431Z,60.7
2022-07-31T09:24:02.839Z,60.7
2022-07-31T09:27:07.837Z,60.7
2022-07-31T09:30:02.795Z,59.2
2022-07-31T09:33:02.829Z,59.2
2022-07-31T09:36:02.800Z,59.2
2022-07-31T09:39:07.434Z,59.2
2022-07-31T09:42:22.345Z,59.2
2022-07-31T09:45:02.780Z,59.2
2022-07-31T09:48:02.819Z,59.8
2022-07-31T09:51:02.788Z,59.8
2022-07-31T09:54:02.806Z,59.4
2022-07-31T09:57:03.014Z,59.4
2022-07-31T10:00:02.870Z,59.4
2022-07-31T10:03:02.777Z,59.4
2022-07-31T10:06:02.805Z,59.4
2022-07-31T10:09:02.791Z,59.4
2022-07-31T10:12:02.824Z,59.4
2022-07-31T10:15:02.775Z,55.4
2022-07-31T10:18:02.794Z,55.4
2022-07-31T10:21:03.888Z,55.4
2022-07-31T10:24:02.765Z,55.4
2022-07-31T10:27:11.839Z,55.4
2022-07-31T10:30:02.883Z,55.4
2022-07-31T10:33:02.805Z,55.4
2022-07-31T10:36:02.785Z,55.4
2022-07-31T10:39:02.774Z,52.4
2022-07-31T10:42:02.777Z,52.4
2022-07-31T10:45:02.805Z,52.1
2022-07-31T10:48:02.797Z,54
2022-07-31T10:51:02.771Z,54
2022-07-31T10:54:03.114Z,54
2022-07-31T10:57:03.406Z,54
2022-07-31T11:00:02.835Z,54
2022-07-31T11:03:02.773Z,54
2022-07-31T11:06:05.454Z,54
2022-07-31T11:09:02.783Z,54
2022-07-31T11:12:02.880Z,54
2022-07-31T11:15:02.776Z,54
2022-07-31T11:18:32.566Z,54
2022-07-31T11:21:37.914Z,52.1
2022-07-31T11:24:11.594Z,52.1
2022-07-31T11:27:03.022Z,52.1
2022-07-31T11:30:13.578Z,52.1
2022-07-31T11:33:02.806Z,52.1
2022-07-31T11:36:02.808Z,52.1
2022-07-31T11:39:06.390Z,50.5
2022-07-31T11:42:02.823Z,50.4
2022-07-31T11:45:08.566Z,50.4
2022-07-31T11:48:17.829Z,50.4
2022-07-31T11:51:02.737Z,50.4
2022-07-31T11:54:02.816Z,50.4
2022-07-31T11:57:02.985Z,50.4
2022-07-31T12:00:02.894Z,50.4
2022-07-31T12:03:03.160Z,50.4
2022-07-31T12:06:02.822Z,50.4
2022-07-31T12:09:02.838Z,50.4
2022-07-31T12:12:02.801Z,50.4
2022-07-31T12:15:02.894Z,50.4
2022-07-31T12:18:02.809Z,50.6
2022-07-31T12:21:02.784Z,50.6
2022-07-31T12:24:02.755Z,50.6
2022-07-31T12:27:03.090Z,50.6
2022-07-31T12:30:02.876Z,50.6
2022-07-31T12:33:02.797Z,50.6
2022-07-31T12:36:02.722Z,50.6
2022-07-31T12:39:02.786Z,47.8
2022-07-31T12:42:02.742Z,47.8
2022-07-31T12:45:17.771Z,47.8
2022-07-31T12:48:02.750Z,47.8
2022-07-31T12:51:02.804Z,47.8
2022-07-31T12:54:02.779Z,47.6
2022-07-31T12:57:03.161Z,47.6
2022-07-31T13:00:02.884Z,47.6
2022-07-31T13:03:02.813Z,47.6
2022-07-31T13:06:02.812Z,47.6
2022-07-31T13:09:02.778Z,47.6
2022-07-31T13:12:02.789Z,47.6
2022-07-31T13:15:02.813Z,47.6
2022-07-31T13:18:02.788Z,47.6
2022-07-31T13:21:02.779Z,47.6
2022-07-31T13:24:02.781Z,47.6
2022-07-31T13:27:03.099Z,48.6
2022-07-31T13:30:05.691Z,47.8
2022-07-31T13:33:02.829Z,47.8
2022-07-31T13:36:02.786Z,47.8
2022-07-31T13:39:02.789Z,47.8
2022-07-31T13:42:02.823Z,47.8
2022-07-31T13:45:10.297Z,47.8
2022-07-31T13:48:10.770Z,47.8
2022-07-31T13:51:02.820Z,47.3
2022-07-31T13:54:02.803Z,47.3
2022-07-31T13:57:02.797Z,47.3
2022-07-31T14:00:02.821Z,47.3
2022-07-31T14:03:02.806Z,47.3
2022-07-31T14:06:04.334Z,47.3
2022-07-31T14:09:02.773Z,47.3
2022-07-31T14:12:08.294Z,47.3
2022-07-31T14:15:02.805Z,47.3
2022-07-31T14:18:10.203Z,47.3
2022-07-31T14:21:02.831Z,47.3
2022-07-31T14:24:02.837Z,48
2022-07-31T14:27:02.756Z,48
2022-07-31T14:30:02.825Z,48
2022-07-31T14:33:02.777Z,48
2022-07-31T14:36:02.773Z,48
2022-07-31T14:39:02.791Z,48
2022-07-31T14:42:03.078Z,48
2022-07-31T14:45:02.999Z,49
2022-07-31T14:48:02.802Z,49
2022-07-31T14:51:02.774Z,49
2022-07-31T14:54:02.832Z,49
2022-07-31T14:57:04.155Z,49
2022-07-31T15:00:02.854Z,49
2022-07-31T15:03:02.769Z,49
2022-07-31T15:09:02.802Z,49
2022-07-31T15:12:04.369Z,49
2022-07-31T15:15:02.807Z,49
2022-07-31T15:18:02.886Z,49
2022-07-31T15:21:02.773Z,49
2022-07-31T15:24:02.829Z,48.2
2022-07-31T15:27:03.254Z,48.2
2022-07-31T15:30:10.160Z,48.2
2022-07-31T15:33:02.837Z,48.2
2022-07-31T15:36:04.365Z,48.2
2022-07-31T15:39:02.804Z,48.2
2022-07-31T15:42:02.774Z,48.2
2022-07-31T15:45:02.805Z,48.2
2022-07-31T15:48:04.899Z,48.2
2022-07-31T15:51:02.779Z,48.2
2022-07-31T15:54:02.761Z,48.2
2022-07-31T15:57:02.927Z,48.2
2022-07-31T16:00:02.846Z,48.2
2022-07-31T16:03:06.738Z,48.2
2022-07-31T16:06:03.449Z,48.2
2022-07-31T16:09:02.751Z,49.9
2022-07-31T16:12:08.018Z,49.9
2022-07-31T16:15:07.764Z,49.9
2022-07-31T16:18:02.818Z,49.9
2022-07-31T16:21:02.778Z,49.9
2022-07-31T16:24:02.758Z,50.3
2022-07-31T16:27:03.100Z,50.3
2022-07-31T16:30:05.335Z,50.3
2022-07-31T16:33:02.780Z,50.3
2022-07-31T16:36:02.835Z,50.3
2022-07-31T16:39:22.832Z,50.3
2022-07-31T16:42:02.838Z,50.3
2022-07-31T16:45:02.782Z,52
2022-07-31T16:48:02.799Z,52
2022-07-31T16:51:02.788Z,52
2022-07-31T16:54:18.547Z,52
2022-07-31T16:57:03.154Z,52.4
2022-07-31T17:00:02.831Z,52.4
2022-07-31T17:03:02.763Z,52.4
2022-07-31T17:06:02.831Z,52.4
2022-07-31T17:09:19.242Z,50.1
2022-07-31T17:12:03.156Z,50.1
2022-07-31T17:15:02.744Z,49.4
2022-07-31T17:18:02.774Z,49.4
2022-07-31T17:21:02.917Z,49.4
2022-07-31T17:24:05.822Z,49
2022-07-31T17:27:02.929Z,49.8
2022-07-31T17:30:02.908Z,49.8
2022-07-31T17:33:02.813Z,49.8
2022-07-31T17:36:02.822Z,49.8
2022-07-31T17:39:02.771Z,55.6
2022-07-31T17:42:02.900Z,55.6
2022-07-31T17:45:02.772Z,58.6
2022-07-31T17:48:06.197Z,58.6
2022-07-31T17:51:02.774Z,58.6
2022-07-31T17:54:03.003Z,58.6
2022-07-31T17:57:02.830Z,60.5
2022-07-31T18:00:02.867Z,60.5
2022-07-31T18:03:02.785Z,60.5
2022-07-31T18:06:02.839Z,62.4
2022-07-31T18:09:02.850Z,62.4
2022-07-31T18:12:03.329Z,64.3
2022-07-31T18:15:02.788Z,64.3
2022-07-31T18:18:02.817Z,64.3
2022-07-31T18:21:02.785Z,64.3
2022-07-31T18:24:07.724Z,64.3
2022-07-31T18:27:02.773Z,66.1
2022-07-31T18:30:02.857Z,66.1
2022-07-31T18:33:02.743Z,66.1
2022-07-31T18:36:02.834Z,66.1
2022-07-31T18:39:02.794Z,66.1
2022-07-31T18:42:03.097Z,66.1
2022-07-31T18:45:02.753Z,66.1
2022-07-31T18:48:02.829Z,66.1
2022-07-31T18:51:07.660Z,66.1
2022-07-31T18:54:02.801Z,66.1
2022-07-31T18:57:02.790Z,66.1
2022-07-31T19:00:02.842Z,66.1
2022-07-31T19:03:02.758Z,66.1
2022-07-31T19:06:02.832Z,66.1
2022-07-31T19:09:03.996Z,68.3
2022-07-31T19:12:10.875Z,68.3
2022-07-31T19:15:02.734Z,68.3
2022-07-31T19:18:04.528Z,68.3
2022-07-31T19:21:44.460Z,68.3
2022-07-31T19:24:02.743Z,68.3
2022-07-31T19:27:02.756Z,68.3
2022-07-31T19:30:02.743Z,68.3
2022-07-31T19:33:02.726Z,71
2022-07-31T19:36:05.454Z,71
2022-07-31T19:39:02.749Z,71
2022-07-31T19:42:14.534Z,71
2022-07-31T19:45:02.737Z,71
2022-07-31T19:48:02.758Z,71
2022-07-31T19:51:02.780Z,71
2022-07-31T19:54:02.764Z,71
2022-07-31T19:57:02.782Z,71
2022-07-31T20:00:02.792Z,71
2022-07-31T20:03:02.970Z,72.5
2022-07-31T20:06:02.802Z,72.5
2022-07-31T20:09:02.710Z,72.5
2022-07-31T20:12:02.989Z,72.5
2022-07-31T20:15:02.747Z,72.5
2022-07-31T20:18:02.783Z,72.5
2022-07-31T20:21:02.724Z,72.5
2022-07-31T20:24:02.777Z,72.5
2022-07-31T20:27:02.805Z,72.5
2022-07-31T20:30:04.038Z,72.5
2022-07-31T20:33:02.773Z,72.5
2022-07-31T20:36:02.735Z,72.5
2022-07-31T20:39:02.792Z,72.5
2022-07-31T20:42:03.113Z,72.5
2022-07-31T20:45:03.103Z,72.5
2022-07-31T20:48:02.770Z,72.5
2022-07-31T20:51:02.821Z,72.5
2022-07-31T20:54:02.782Z,74.8
2022-07-31T20:57:02.784Z,74.8
2022-07-31T21:00:02.817Z,74.9
2022-07-31T21:03:02.748Z,74.9
2022-07-31T21:06:02.767Z,74.9
2022-07-31T21:09:06.588Z,74.9
2022-07-31T21:12:03.056Z,74.9
2022-07-31T21:15:02.746Z,74.9
2022-07-31T21:18:05.770Z,74.9
2022-07-31T21:21:02.753Z,74.9
2022-07-31T21:24:02.821Z,74.9
2022-07-31T21:27:02.735Z,74.9
2022-07-31T21:30:02.850Z,74.9
2022-07-31T21:33:02.771Z,74.9
2022-07-31T21:36:02.800Z,74.9
2022-07-31T21:39:02.855Z,74.9
2022-07-31T21:42:03.112Z,74.9
2022-07-31T21:45:04.654Z,74.9
2022-07-31T21:48:02.757Z,74.9
2022-07-31T21:51:02.977Z,77.8
2022-07-31T21:54:02.806Z,77.8
2022-07-31T21:57:02.799Z,77.8
2022-07-31T22:00:03.615Z,77.8
2022-07-31T22:03:02.803Z,77.8
2022-07-31T22:06:02.814Z,77.8
2022-07-31T22:09:02.820Z,77.8
2022-07-31T22:12:08.385Z,77.8
2022-07-31T22:15:02.832Z,77.8
2022-07-31T22:18:03.464Z,77.8
2022-07-31T22:21:02.835Z,77.8
2022-07-31T22:24:02.782Z,77.8
2022-07-31T22:27:02.732Z,77.8
2022-07-31T22:30:02.796Z,77.8
2022-07-31T22:33:02.836Z,77.8
2022-07-31T22:36:03.108Z,79.4
2022-07-31T22:39:02.714Z,79.4
2022-07-31T22:42:03.297Z,79.4
2022-07-31T22:45:02.759Z,79.8
2022-07-31T22:48:02.759Z,79.8
2022-07-31T22:51:02.773Z,79.8
2022-07-31T22:54:02.765Z,79.8
2022-07-31T22:57:02.836Z,79.8
2022-07-31T23:00:02.856Z,79.8
2022-07-31T23:03:02.855Z,79.8
2022-07-31T23:06:33.802Z,79.8
2022-07-31T23:09:02.841Z,79.8
2022-07-31T23:12:03.080Z,79.8
2022-07-31T23:15:02.738Z,80.4
2022-07-31T23:18:02.772Z,80.4
2022-07-31T23:21:02.803Z,80.4
2022-07-31T23:24:02.812Z,80.4
2022-07-31T23:27:02.792Z,80.4
2022-07-31T23:30:02.816Z,80.4
2022-07-31T23:33:02.832Z,80.4
2022-07-31T23:36:02.843Z,81
2022-07-31T23:39:02.853Z,81
2022-07-31T23:42:02.999Z,81
2022-07-31T23:45:02.953Z,81
2022-07-31T23:48:02.826Z,81
2022-07-31T23:51:02.782Z,81
2022-07-31T23:54:02.780Z,81
2022-07-31T23:57:02.799Z,81
